sensor_id;sensor_type;location;lat;lon;timestamp;P1;durP1;ratioP1;P2;durP2;ratioP2
39324;SDS011;25037;49.488;9.900;2023-08-06T00:00:41;3.05;;;1.20;;
39324;SDS011;25037;49.488;9.900;2023-08-06T00:03:08;4.65;;;1.25;;
39324;SDS011;25037;49.488;9.900;2023-08-06T00:05:35;3.60;;;1.00;;
39324;SDS011;25037;49.488;9.900;2023-08-06T00:08:02;2.63;;;1.13;;
39324;SDS011;25037;49.488;9.900;2023-08-06T00:10:29;3.75;;;1.33;;
39324;SDS011;25037;49.488;9.900;2023-08-06T00:12:55;3.00;;;0.80;;
39324;SDS011;25037;49.488;9.900;2023-08-06T00:15:22;4.18;;;1.25;;
39324;SDS011;25037;49.488;9.900;2023-08-06T00:17:49;3.90;;;0.93;;
39324;SDS011;25037;49.488;9.900;2023-08-06T00:20:15;3.08;;;1.10;;
39324;SDS011;25037;49.488;9.900;2023-08-06T00:22:42;3.38;;;1.20;;
39324;SDS011;25037;49.488;9.900;2023-08-06T00:25:09;4.10;;;1.20;;
39324;SDS011;25037;49.488;9.900;2023-08-06T00:27:36;3.33;;;1.33;;
39324;SDS011;25037;49.488;9.900;2023-08-06T00:30:03;3.33;;;1.67;;
39324;SDS011;25037;49.488;9.900;2023-08-06T00:32:30;3.47;;;1.10;;
39324;SDS011;25037;49.488;9.900;2023-08-06T00:34:57;2.33;;;1.00;;
39324;SDS011;25037;49.488;9.900;2023-08-06T00:37:24;4.53;;;1.40;;
39324;SDS011;25037;49.488;9.900;2023-08-06T00:39:51;2.50;;;1.05;;
39324;SDS011;25037;49.488;9.900;2023-08-06T00:42:17;3.40;;;1.33;;
39324;SDS011;25037;49.488;9.900;2023-08-06T00:44:47;4.93;;;1.27;;
39324;SDS011;25037;49.488;9.900;2023-08-06T00:47:13;2.63;;;1.40;;
39324;SDS011;25037;49.488;9.900;2023-08-06T00:49:41;2.92;;;1.33;;
39324;SDS011;25037;49.488;9.900;2023-08-06T00:52:08;3.03;;;1.08;;
39324;SDS011;25037;49.488;9.900;2023-08-06T00:54:35;2.83;;;1.35;;
39324;SDS011;25037;49.488;9.900;2023-08-06T00:57:03;2.80;;;1.10;;
39324;SDS011;25037;49.488;9.900;2023-08-06T00:59:31;5.35;;;1.60;;
39324;SDS011;25037;49.488;9.900;2023-08-06T01:01:59;4.32;;;1.15;;
39324;SDS011;25037;49.488;9.900;2023-08-06T01:04:26;2.60;;;1.30;;
39324;SDS011;25037;49.488;9.900;2023-08-06T01:15:45;2.67;;;1.10;;
39324;SDS011;25037;49.488;9.900;2023-08-06T01:18:15;3.00;;;1.40;;
39324;SDS011;25037;49.488;9.900;2023-08-06T01:20:42;4.07;;;1.23;;
39324;SDS011;25037;49.488;9.900;2023-08-06T01:23:09;4.28;;;1.40;;
39324;SDS011;25037;49.488;9.900;2023-08-06T01:25:45;3.53;;;1.02;;
39324;SDS011;25037;49.488;9.900;2023-08-06T01:28:18;2.88;;;1.40;;
39324;SDS011;25037;49.488;9.900;2023-08-06T01:30:58;3.35;;;1.08;;
39324;SDS011;25037;49.488;9.900;2023-08-06T01:33:29;4.20;;;1.13;;
39324;SDS011;25037;49.488;9.900;2023-08-06T01:35:58;3.80;;;1.33;;
39324;SDS011;25037;49.488;9.900;2023-08-06T01:38:26;4.95;;;1.33;;
39324;SDS011;25037;49.488;9.900;2023-08-06T01:40:54;3.72;;;0.90;;
39324;SDS011;25037;49.488;9.900;2023-08-06T01:43:21;3.58;;;1.27;;
39324;SDS011;25037;49.488;9.900;2023-08-06T01:45:48;2.90;;;0.95;;
39324;SDS011;25037;49.488;9.900;2023-08-06T01:48:14;2.83;;;1.27;;
39324;SDS011;25037;49.488;9.900;2023-08-06T01:50:41;2.85;;;1.15;;
39324;SDS011;25037;49.488;9.900;2023-08-06T01:53:08;2.45;;;1.10;;
39324;SDS011;25037;49.488;9.900;2023-08-06T01:55:35;3.53;;;1.27;;
39324;SDS011;25037;49.488;9.900;2023-08-06T01:58:01;3.72;;;1.10;;
39324;SDS011;25037;49.488;9.900;2023-08-06T02:02:55;3.72;;;1.05;;
39324;SDS011;25037;49.488;9.900;2023-08-06T02:05:22;2.90;;;1.25;;
39324;SDS011;25037;49.488;9.900;2023-08-06T02:10:15;2.92;;;1.27;;
39324;SDS011;25037;49.488;9.900;2023-08-06T02:12:42;4.10;;;1.27;;
39324;SDS011;25037;49.488;9.900;2023-08-06T02:15:09;4.13;;;1.40;;
39324;SDS011;25037;49.488;9.900;2023-08-06T02:17:35;4.32;;;1.60;;
39324;SDS011;25037;49.488;9.900;2023-08-06T02:20:02;7.03;;;1.30;;
39324;SDS011;25037;49.488;9.900;2023-08-06T02:22:29;3.00;;;1.30;;
39324;SDS011;25037;49.488;9.900;2023-08-06T02:24:56;3.88;;;1.13;;
39324;SDS011;25037;49.488;9.900;2023-08-06T02:29:49;3.25;;;1.17;;
39324;SDS011;25037;49.488;9.900;2023-08-06T02:32:16;3.22;;;1.25;;
39324;SDS011;25037;49.488;9.900;2023-08-06T02:34:43;3.35;;;1.35;;
39324;SDS011;25037;49.488;9.900;2023-08-06T02:37:10;2.70;;;1.30;;
39324;SDS011;25037;49.488;9.900;2023-08-06T02:42:06;4.55;;;1.30;;
39324;SDS011;25037;49.488;9.900;2023-08-06T02:44:35;4.15;;;1.20;;
39324;SDS011;25037;49.488;9.900;2023-08-06T02:47:02;3.50;;;1.02;;
39324;SDS011;25037;49.488;9.900;2023-08-06T02:49:29;3.10;;;1.33;;
39324;SDS011;25037;49.488;9.900;2023-08-06T02:51:56;2.92;;;1.38;;
39324;SDS011;25037;49.488;9.900;2023-08-06T02:54:23;3.85;;;1.25;;
39324;SDS011;25037;49.488;9.900;2023-08-06T02:59:16;4.35;;;1.50;;
39324;SDS011;25037;49.488;9.900;2023-08-06T03:01:43;3.63;;;1.50;;
39324;SDS011;25037;49.488;9.900;2023-08-06T03:04:10;3.92;;;1.20;;
39324;SDS011;25037;49.488;9.900;2023-08-06T03:06:37;7.28;;;1.70;;
39324;SDS011;25037;49.488;9.900;2023-08-06T03:09:04;2.60;;;1.05;;
39324;SDS011;25037;49.488;9.900;2023-08-06T03:11:30;3.92;;;1.20;;
39324;SDS011;25037;49.488;9.900;2023-08-06T03:13:57;3.50;;;1.30;;
39324;SDS011;25037;49.488;9.900;2023-08-06T03:16:24;3.28;;;1.83;;
39324;SDS011;25037;49.488;9.900;2023-08-06T03:18:51;2.80;;;1.30;;
39324;SDS011;25037;49.488;9.900;2023-08-06T03:21:18;3.60;;;1.42;;
39324;SDS011;25037;49.488;9.900;2023-08-06T03:23:46;4.75;;;1.52;;
39324;SDS011;25037;49.488;9.900;2023-08-06T03:26:14;2.65;;;1.30;;
39324;SDS011;25037;49.488;9.900;2023-08-06T03:31:08;3.53;;;1.42;;
39324;SDS011;25037;49.488;9.900;2023-08-06T03:33:35;3.88;;;1.58;;
39324;SDS011;25037;49.488;9.900;2023-08-06T03:36:02;4.32;;;1.70;;
39324;SDS011;25037;49.488;9.900;2023-08-06T03:38:29;4.65;;;1.60;;
39324;SDS011;25037;49.488;9.900;2023-08-06T03:43:22;4.00;;;1.52;;
39324;SDS011;25037;49.488;9.900;2023-08-06T03:45:49;4.22;;;1.98;;
39324;SDS011;25037;49.488;9.900;2023-08-06T03:48:16;3.63;;;1.95;;
39324;SDS011;25037;49.488;9.900;2023-08-06T03:53:09;4.43;;;1.55;;
39324;SDS011;25037;49.488;9.900;2023-08-06T03:58:03;5.80;;;2.80;;
39324;SDS011;25037;49.488;9.900;2023-08-06T04:00:30;6.20;;;1.65;;
39324;SDS011;25037;49.488;9.900;2023-08-06T04:02:56;4.93;;;1.67;;
39324;SDS011;25037;49.488;9.900;2023-08-06T04:05:23;5.43;;;1.42;;
39324;SDS011;25037;49.488;9.900;2023-08-06T04:07:50;3.00;;;1.40;;
39324;SDS011;25037;49.488;9.900;2023-08-06T04:10:17;4.45;;;1.95;;
39324;SDS011;25037;49.488;9.900;2023-08-06T04:12:44;3.03;;;1.60;;
39324;SDS011;25037;49.488;9.900;2023-08-06T04:15:11;5.20;;;1.50;;
39324;SDS011;25037;49.488;9.900;2023-08-06T04:20:04;2.90;;;1.50;;
39324;SDS011;25037;49.488;9.900;2023-08-06T04:22:31;6.20;;;1.75;;
39324;SDS011;25037;49.488;9.900;2023-08-06T04:27:25;6.80;;;1.15;;
39324;SDS011;25037;49.488;9.900;2023-08-06T04:29:52;6.03;;;1.73;;
39324;SDS011;25037;49.488;9.900;2023-08-06T04:32:18;2.95;;;1.52;;
39324;SDS011;25037;49.488;9.900;2023-08-06T04:34:45;4.88;;;1.83;;
39324;SDS011;25037;49.488;9.900;2023-08-06T04:37:14;4.85;;;1.73;;
39324;SDS011;25037;49.488;9.900;2023-08-06T04:42:07;3.05;;;1.63;;
39324;SDS011;25037;49.488;9.900;2023-08-06T04:44:34;4.20;;;1.75;;
39324;SDS011;25037;49.488;9.900;2023-08-06T04:47:01;5.30;;;1.67;;
39324;SDS011;25037;49.488;9.900;2023-08-06T04:49:27;4.32;;;1.55;;
39324;SDS011;25037;49.488;9.900;2023-08-06T04:51:54;3.60;;;1.60;;
39324;SDS011;25037;49.488;9.900;2023-08-06T04:54:21;4.18;;;1.85;;
39324;SDS011;25037;49.488;9.900;2023-08-06T04:56:48;4.63;;;1.70;;
39324;SDS011;25037;49.488;9.900;2023-08-06T04:59:15;5.75;;;1.83;;
39324;SDS011;25037;49.488;9.900;2023-08-06T05:01:41;4.43;;;1.50;;
39324;SDS011;25037;49.488;9.900;2023-08-06T05:04:08;5.25;;;1.70;;
39324;SDS011;25037;49.488;9.900;2023-08-06T05:06:35;4.03;;;1.73;;
39324;SDS011;25037;49.488;9.900;2023-08-06T05:09:04;4.50;;;1.60;;
39324;SDS011;25037;49.488;9.900;2023-08-06T05:11:32;3.95;;;1.95;;
39324;SDS011;25037;49.488;9.900;2023-08-06T05:13:59;5.28;;;1.83;;
39324;SDS011;25037;49.488;9.900;2023-08-06T05:16:25;3.53;;;1.45;;
39324;SDS011;25037;49.488;9.900;2023-08-06T05:18:52;4.47;;;1.70;;
39324;SDS011;25037;49.488;9.900;2023-08-06T05:21:19;4.45;;;1.65;;
39324;SDS011;25037;49.488;9.900;2023-08-06T05:23:46;4.45;;;1.70;;
39324;SDS011;25037;49.488;9.900;2023-08-06T05:26:12;3.80;;;1.80;;
39324;SDS011;25037;49.488;9.900;2023-08-06T05:28:42;3.40;;;1.40;;
39324;SDS011;25037;49.488;9.900;2023-08-06T05:31:08;4.15;;;1.67;;
39324;SDS011;25037;49.488;9.900;2023-08-06T05:33:35;4.10;;;1.70;;
39324;SDS011;25037;49.488;9.900;2023-08-06T05:36:02;2.92;;;1.40;;
39324;SDS011;25037;49.488;9.900;2023-08-06T05:38:29;4.15;;;1.38;;
39324;SDS011;25037;49.488;9.900;2023-08-06T05:40:59;4.82;;;2.00;;
39324;SDS011;25037;49.488;9.900;2023-08-06T05:43:26;3.45;;;1.50;;
39324;SDS011;25037;49.488;9.900;2023-08-06T05:45:52;3.33;;;1.42;;
39324;SDS011;25037;49.488;9.900;2023-08-06T05:48:19;7.03;;;1.83;;
39324;SDS011;25037;49.488;9.900;2023-08-06T05:50:48;4.28;;;1.60;;
39324;SDS011;25037;49.488;9.900;2023-08-06T05:53:14;4.30;;;1.52;;
39324;SDS011;25037;49.488;9.900;2023-08-06T05:55:41;3.08;;;1.60;;
39324;SDS011;25037;49.488;9.900;2023-08-06T05:58:14;3.88;;;1.48;;
39324;SDS011;25037;49.488;9.900;2023-08-06T06:00:40;6.50;;;1.80;;
39324;SDS011;25037;49.488;9.900;2023-08-06T06:03:07;3.47;;;1.25;;
39324;SDS011;25037;49.488;9.900;2023-08-06T06:05:37;4.30;;;1.02;;
39324;SDS011;25037;49.488;9.900;2023-08-06T06:08:07;2.70;;;1.20;;
39324;SDS011;25037;49.488;9.900;2023-08-06T06:10:33;2.00;;;1.02;;
39324;SDS011;25037;49.488;9.900;2023-08-06T06:13:01;6.53;;;1.30;;
39324;SDS011;25037;49.488;9.900;2023-08-06T06:15:28;3.20;;;0.88;;
39324;SDS011;25037;49.488;9.900;2023-08-06T06:17:55;3.78;;;0.90;;
39324;SDS011;25037;49.488;9.900;2023-08-06T06:20:21;3.20;;;1.05;;
39324;SDS011;25037;49.488;9.900;2023-08-06T06:22:48;2.33;;;0.80;;
39324;SDS011;25037;49.488;9.900;2023-08-06T06:25:15;3.75;;;1.10;;
39324;SDS011;25037;49.488;9.900;2023-08-06T06:27:46;4.47;;;0.90;;
39324;SDS011;25037;49.488;9.900;2023-08-06T06:30:13;2.40;;;0.85;;
39324;SDS011;25037;49.488;9.900;2023-08-06T06:32:40;3.10;;;0.95;;
39324;SDS011;25037;49.488;9.900;2023-08-06T06:35:07;3.47;;;0.85;;
39324;SDS011;25037;49.488;9.900;2023-08-06T06:37:34;2.53;;;1.00;;
39324;SDS011;25037;49.488;9.900;2023-08-06T06:40:01;3.70;;;0.98;;
39324;SDS011;25037;49.488;9.900;2023-08-06T06:42:28;1.77;;;0.63;;
39324;SDS011;25037;49.488;9.900;2023-08-06T06:44:55;5.25;;;1.02;;
39324;SDS011;25037;49.488;9.900;2023-08-06T06:47:27;3.22;;;0.70;;
39324;SDS011;25037;49.488;9.900;2023-08-06T06:49:54;2.72;;;0.63;;
39324;SDS011;25037;49.488;9.900;2023-08-06T06:52:20;3.60;;;0.70;;
39324;SDS011;25037;49.488;9.900;2023-08-06T06:54:47;2.05;;;0.90;;
39324;SDS011;25037;49.488;9.900;2023-08-06T06:57:14;1.80;;;0.55;;
39324;SDS011;25037;49.488;9.900;2023-08-06T06:59:41;2.72;;;0.50;;
39324;SDS011;25037;49.488;9.900;2023-08-06T07:02:08;3.28;;;0.60;;
39324;SDS011;25037;49.488;9.900;2023-08-06T07:04:37;2.72;;;0.70;;
39324;SDS011;25037;49.488;9.900;2023-08-06T07:07:04;2.95;;;0.65;;
39324;SDS011;25037;49.488;9.900;2023-08-06T07:09:31;2.83;;;0.73;;
39324;SDS011;25037;49.488;9.900;2023-08-06T07:11:59;3.10;;;0.63;;
39324;SDS011;25037;49.488;9.900;2023-08-06T07:16:52;2.22;;;0.52;;
39324;SDS011;25037;49.488;9.900;2023-08-06T07:19:19;2.10;;;0.60;;
39324;SDS011;25037;49.488;9.900;2023-08-06T07:21:46;2.55;;;0.60;;
39324;SDS011;25037;49.488;9.900;2023-08-06T07:24:13;1.70;;;0.50;;
39324;SDS011;25037;49.488;9.900;2023-08-06T07:26:40;2.67;;;0.77;;
39324;SDS011;25037;49.488;9.900;2023-08-06T07:31:33;4.50;;;0.70;;
39324;SDS011;25037;49.488;9.900;2023-08-06T07:34:00;4.50;;;0.60;;
39324;SDS011;25037;49.488;9.900;2023-08-06T07:36:26;3.22;;;0.70;;
39324;SDS011;25037;49.488;9.900;2023-08-06T07:38:53;3.00;;;0.60;;
39324;SDS011;25037;49.488;9.900;2023-08-06T07:41:23;1.30;;;0.50;;
39324;SDS011;25037;49.488;9.900;2023-08-06T07:43:49;2.60;;;0.60;;
39324;SDS011;25037;49.488;9.900;2023-08-06T07:46:16;1.88;;;0.50;;
39324;SDS011;25037;49.488;9.900;2023-08-06T07:48:43;1.67;;;0.50;;
39324;SDS011;25037;49.488;9.900;2023-08-06T07:51:10;1.05;;;0.35;;
39324;SDS011;25037;49.488;9.900;2023-08-06T07:53:36;4.43;;;0.57;;
39324;SDS011;25037;49.488;9.900;2023-08-06T07:56:03;1.02;;;0.30;;
39324;SDS011;25037;49.488;9.900;2023-08-06T07:58:30;2.03;;;0.65;;
39324;SDS011;25037;49.488;9.900;2023-08-06T08:00:57;2.63;;;0.63;;
39324;SDS011;25037;49.488;9.900;2023-08-06T08:03:26;2.88;;;0.52;;
39324;SDS011;25037;49.488;9.900;2023-08-06T08:05:54;1.92;;;0.43;;
39324;SDS011;25037;49.488;9.900;2023-08-06T08:08:24;1.17;;;0.30;;
39324;SDS011;25037;49.488;9.900;2023-08-06T08:10:51;1.20;;;0.47;;
39324;SDS011;25037;49.488;9.900;2023-08-06T08:13:18;1.30;;;0.40;;
39324;SDS011;25037;49.488;9.900;2023-08-06T08:15:44;1.73;;;0.47;;
39324;SDS011;25037;49.488;9.900;2023-08-06T08:18:11;1.50;;;0.47;;
39324;SDS011;25037;49.488;9.900;2023-08-06T08:20:38;1.95;;;0.50;;
39324;SDS011;25037;49.488;9.900;2023-08-06T08:23:05;0.80;;;0.30;;
39324;SDS011;25037;49.488;9.900;2023-08-06T08:25:32;1.65;;;0.43;;
39324;SDS011;25037;49.488;9.900;2023-08-06T08:28:00;1.40;;;0.50;;
39324;SDS011;25037;49.488;9.900;2023-08-06T08:30:27;1.13;;;0.40;;
39324;SDS011;25037;49.488;9.900;2023-08-06T08:32:53;0.75;;;0.30;;
39324;SDS011;25037;49.488;9.900;2023-08-06T08:35:20;2.20;;;0.57;;
39324;SDS011;25037;49.488;9.900;2023-08-06T08:37:47;0.95;;;0.30;;
39324;SDS011;25037;49.488;9.900;2023-08-06T08:40:14;1.45;;;0.45;;
39324;SDS011;25037;49.488;9.900;2023-08-06T08:42:41;0.95;;;0.30;;
39324;SDS011;25037;49.488;9.900;2023-08-06T08:45:12;0.90;;;0.50;;
39324;SDS011;25037;49.488;9.900;2023-08-06T08:47:44;1.42;;;0.45;;
39324;SDS011;25037;49.488;9.900;2023-08-06T08:50:13;1.83;;;0.57;;
39324;SDS011;25037;49.488;9.900;2023-08-06T08:52:41;1.58;;;0.77;;
39324;SDS011;25037;49.488;9.900;2023-08-06T08:55:11;2.03;;;0.30;;
39324;SDS011;25037;49.488;9.900;2023-08-06T08:57:40;0.80;;;0.32;;
39324;SDS011;25037;49.488;9.900;2023-08-06T09:00:07;0.90;;;0.30;;
39324;SDS011;25037;49.488;9.900;2023-08-06T09:02:34;0.60;;;0.22;;
39324;SDS011;25037;49.488;9.900;2023-08-06T09:05:02;1.77;;;0.22;;
39324;SDS011;25037;49.488;9.900;2023-08-06T09:07:35;0.57;;;0.32;;
39324;SDS011;25037;49.488;9.900;2023-08-06T09:10:10;0.60;;;0.20;;
39324;SDS011;25037;49.488;9.900;2023-08-06T09:12:40;0.75;;;0.22;;
39324;SDS011;25037;49.488;9.900;2023-08-06T09:15:07;1.02;;;0.20;;
39324;SDS011;25037;49.488;9.900;2023-08-06T09:17:35;1.00;;;0.30;;
39324;SDS011;25037;49.488;9.900;2023-08-06T09:20:10;0.63;;;0.40;;
39324;SDS011;25037;49.488;9.900;2023-08-06T09:22:41;2.10;;;0.30;;
39324;SDS011;25037;49.488;9.900;2023-08-06T09:25:07;1.10;;;0.20;;
39324;SDS011;25037;49.488;9.900;2023-08-06T09:27:36;0.82;;;0.32;;
39324;SDS011;25037;49.488;9.900;2023-08-06T09:30:04;1.20;;;0.57;;
39324;SDS011;25037;49.488;9.900;2023-08-06T09:32:45;1.50;;;0.43;;
39324;SDS011;25037;49.488;9.900;2023-08-06T09:35:19;2.47;;;0.55;;
39324;SDS011;25037;49.488;9.900;2023-08-06T09:37:46;0.77;;;0.30;;
39324;SDS011;25037;49.488;9.900;2023-08-06T09:40:24;1.02;;;0.40;;
39324;SDS011;25037;49.488;9.900;2023-08-06T09:42:55;0.70;;;0.40;;
39324;SDS011;25037;49.488;9.900;2023-08-06T09:45:23;0.90;;;0.50;;
39324;SDS011;25037;49.488;9.900;2023-08-06T09:47:57;0.98;;;0.38;;
39324;SDS011;25037;49.488;9.900;2023-08-06T09:50:27;1.33;;;0.52;;
39324;SDS011;25037;49.488;9.900;2023-08-06T09:52:58;0.90;;;0.47;;
39324;SDS011;25037;49.488;9.900;2023-08-06T09:55:26;1.23;;;0.50;;
39324;SDS011;25037;49.488;9.900;2023-08-06T09:57:53;0.90;;;0.30;;
39324;SDS011;25037;49.488;9.900;2023-08-06T10:00:20;1.25;;;0.40;;
39324;SDS011;25037;49.488;9.900;2023-08-06T10:02:49;1.02;;;0.28;;
39324;SDS011;25037;49.488;9.900;2023-08-06T10:05:20;0.80;;;0.40;;
39324;SDS011;25037;49.488;9.900;2023-08-06T10:07:47;1.63;;;0.30;;
39324;SDS011;25037;49.488;9.900;2023-08-06T10:10:16;0.80;;;0.40;;
39324;SDS011;25037;49.488;9.900;2023-08-06T10:12:50;0.93;;;0.55;;
39324;SDS011;25037;49.488;9.900;2023-08-06T10:15:22;1.20;;;0.43;;
39324;SDS011;25037;49.488;9.900;2023-08-06T10:17:54;0.57;;;0.30;;
39324;SDS011;25037;49.488;9.900;2023-08-06T10:20:22;1.92;;;0.45;;
39324;SDS011;25037;49.488;9.900;2023-08-06T10:22:59;1.00;;;0.43;;
39324;SDS011;25037;49.488;9.900;2023-08-06T10:25:31;0.80;;;0.25;;
39324;SDS011;25037;49.488;9.900;2023-08-06T10:27:59;0.95;;;0.32;;
39324;SDS011;25037;49.488;9.900;2023-08-06T10:33:03;1.52;;;0.35;;
39324;SDS011;25037;49.488;9.900;2023-08-06T10:38:10;0.68;;;0.38;;
39324;SDS011;25037;49.488;9.900;2023-08-06T10:41:21;0.70;;;0.47;;
39324;SDS011;25037;49.488;9.900;2023-08-06T10:43:35;1.88;;;0.30;;
39324;SDS011;25037;49.488;9.900;2023-08-06T10:46:09;0.60;;;0.30;;
39324;SDS011;25037;49.488;9.900;2023-08-06T10:48:41;1.15;;;0.43;;
39324;SDS011;25037;49.488;9.900;2023-08-06T10:51:12;1.00;;;0.43;;
39324;SDS011;25037;49.488;9.900;2023-08-06T10:53:43;0.47;;;0.40;;
39324;SDS011;25037;49.488;9.900;2023-08-06T10:56:11;0.93;;;0.45;;
39324;SDS011;25037;49.488;9.900;2023-08-06T10:58:42;0.68;;;0.50;;
39324;SDS011;25037;49.488;9.900;2023-08-06T11:01:10;0.63;;;0.32;;
39324;SDS011;25037;49.488;9.900;2023-08-06T11:03:37;1.38;;;0.30;;
39324;SDS011;25037;49.488;9.900;2023-08-06T11:06:08;0.60;;;0.30;;
39324;SDS011;25037;49.488;9.900;2023-08-06T11:08:36;0.60;;;0.40;;
39324;SDS011;25037;49.488;9.900;2023-08-06T11:11:08;2.22;;;0.50;;
39324;SDS011;25037;49.488;9.900;2023-08-06T11:13:42;0.75;;;0.40;;
39324;SDS011;25037;49.488;9.900;2023-08-06T11:16:17;0.73;;;0.40;;
39324;SDS011;25037;49.488;9.900;2023-08-06T11:18:45;1.10;;;0.43;;
39324;SDS011;25037;49.488;9.900;2023-08-06T11:21:12;0.90;;;0.38;;
39324;SDS011;25037;49.488;9.900;2023-08-06T11:23:40;1.40;;;0.60;;
39324;SDS011;25037;49.488;9.900;2023-08-06T11:26:10;1.15;;;0.63;;
39324;SDS011;25037;49.488;9.900;2023-08-06T11:28:42;0.73;;;0.32;;
39324;SDS011;25037;49.488;9.900;2023-08-06T11:31:18;0.70;;;0.35;;
39324;SDS011;25037;49.488;9.900;2023-08-06T11:33:45;0.73;;;0.22;;
39324;SDS011;25037;49.488;9.900;2023-08-06T11:36:12;1.67;;;0.35;;
39324;SDS011;25037;49.488;9.900;2023-08-06T11:38:38;1.35;;;0.30;;
39324;SDS011;25037;49.488;9.900;2023-08-06T11:41:06;0.93;;;0.45;;
39324;SDS011;25037;49.488;9.900;2023-08-06T11:43:33;0.55;;;0.30;;
39324;SDS011;25037;49.488;9.900;2023-08-06T11:45:59;1.58;;;0.50;;
39324;SDS011;25037;49.488;9.900;2023-08-06T11:48:26;0.40;;;0.30;;
39324;SDS011;25037;49.488;9.900;2023-08-06T11:50:54;5.38;;;1.13;;
39324;SDS011;25037;49.488;9.900;2023-08-06T12:07:04;0.50;;;0.40;;
39324;SDS011;25037;49.488;9.900;2023-08-06T12:10:00;0.95;;;0.30;;
39324;SDS011;25037;49.488;9.900;2023-08-06T12:12:33;0.55;;;0.25;;
39324;SDS011;25037;49.488;9.900;2023-08-06T12:15:41;0.68;;;0.25;;
39324;SDS011;25037;49.488;9.900;2023-08-06T12:18:40;3.00;;;0.30;;
39324;SDS011;25037;49.488;9.900;2023-08-06T12:21:16;0.40;;;0.20;;
39324;SDS011;25037;49.488;9.900;2023-08-06T12:23:46;1.02;;;0.40;;
39324;SDS011;25037;49.488;9.900;2023-08-06T12:26:15;0.80;;;0.55;;
39324;SDS011;25037;49.488;9.900;2023-08-06T12:28:43;0.43;;;0.20;;
39324;SDS011;25037;49.488;9.900;2023-08-06T12:31:10;0.50;;;0.20;;
39324;SDS011;25037;49.488;9.900;2023-08-06T12:33:37;0.40;;;0.17;;
39324;SDS011;25037;49.488;9.900;2023-08-06T12:36:04;0.73;;;0.30;;
39324;SDS011;25037;49.488;9.900;2023-08-06T12:38:33;1.20;;;0.50;;
39324;SDS011;25037;49.488;9.900;2023-08-06T12:41:14;0.60;;;0.32;;
39324;SDS011;25037;49.488;9.900;2023-08-06T12:43:41;0.30;;;0.22;;
39324;SDS011;25037;49.488;9.900;2023-08-06T12:46:12;0.40;;;0.22;;
39324;SDS011;25037;49.488;9.900;2023-08-06T12:48:39;0.75;;;0.40;;
39324;SDS011;25037;49.488;9.900;2023-08-06T12:51:06;0.55;;;0.20;;
39324;SDS011;25037;49.488;9.900;2023-08-06T12:53:48;0.40;;;0.28;;
39324;SDS011;25037;49.488;9.900;2023-08-06T12:57:38;1.40;;;0.40;;
39324;SDS011;25037;49.488;9.900;2023-08-06T13:00:23;0.45;;;0.30;;
39324;SDS011;25037;49.488;9.900;2023-08-06T13:02:51;0.63;;;0.28;;
39324;SDS011;25037;49.488;9.900;2023-08-06T13:05:18;0.50;;;0.22;;
39324;SDS011;25037;49.488;9.900;2023-08-06T13:07:44;0.77;;;0.30;;
39324;SDS011;25037;49.488;9.900;2023-08-06T13:14:17;0.40;;;0.20;;
39324;SDS011;25037;49.488;9.900;2023-08-06T13:16:48;0.30;;;0.22;;
39324;SDS011;25037;49.488;9.900;2023-08-06T13:19:15;0.43;;;0.25;;
39324;SDS011;25037;49.488;9.900;2023-08-06T13:24:12;0.40;;;0.20;;
39324;SDS011;25037;49.488;9.900;2023-08-06T13:26:41;0.68;;;0.22;;
39324;SDS011;25037;49.488;9.900;2023-08-06T13:29:08;0.70;;;0.40;;
39324;SDS011;25037;49.488;9.900;2023-08-06T13:31:38;1.52;;;0.30;;
39324;SDS011;25037;49.488;9.900;2023-08-06T13:34:05;0.90;;;0.40;;
39324;SDS011;25037;49.488;9.900;2023-08-06T13:36:32;0.95;;;0.32;;
39324;SDS011;25037;49.488;9.900;2023-08-06T13:38:59;0.65;;;0.28;;
39324;SDS011;25037;49.488;9.900;2023-08-06T13:41:26;0.50;;;0.30;;
39324;SDS011;25037;49.488;9.900;2023-08-06T13:43:53;0.70;;;0.45;;
39324;SDS011;25037;49.488;9.900;2023-08-06T13:46:20;1.00;;;0.45;;
39324;SDS011;25037;49.488;9.900;2023-08-06T13:48:49;1.08;;;0.30;;
39324;SDS011;25037;49.488;9.900;2023-08-06T13:51:18;1.08;;;0.57;;
39324;SDS011;25037;49.488;9.900;2023-08-06T13:53:45;1.23;;;0.60;;
39324;SDS011;25037;49.488;9.900;2023-08-06T13:56:12;1.30;;;0.70;;
39324;SDS011;25037;49.488;9.900;2023-08-06T13:58:41;2.17;;;0.52;;
39324;SDS011;25037;49.488;9.900;2023-08-06T14:01:10;1.23;;;0.63;;
39324;SDS011;25037;49.488;9.900;2023-08-06T14:03:39;2.42;;;0.52;;
39324;SDS011;25037;49.488;9.900;2023-08-06T14:06:06;1.33;;;0.38;;
39324;SDS011;25037;49.488;9.900;2023-08-06T14:08:33;0.98;;;0.40;;
39324;SDS011;25037;49.488;9.900;2023-08-06T14:11:01;1.38;;;0.32;;
39324;SDS011;25037;49.488;9.900;2023-08-06T14:13:28;2.05;;;0.60;;
39324;SDS011;25037;49.488;9.900;2023-08-06T14:15:54;1.88;;;0.50;;
39324;SDS011;25037;49.488;9.900;2023-08-06T14:18:21;1.10;;;0.40;;
39324;SDS011;25037;49.488;9.900;2023-08-06T14:20:49;2.85;;;0.50;;
39324;SDS011;25037;49.488;9.900;2023-08-06T14:23:15;1.15;;;0.50;;
39324;SDS011;25037;49.488;9.900;2023-08-06T14:25:42;1.48;;;0.50;;
39324;SDS011;25037;49.488;9.900;2023-08-06T14:28:11;1.50;;;0.52;;
39324;SDS011;25037;49.488;9.900;2023-08-06T14:30:38;1.48;;;0.60;;
39324;SDS011;25037;49.488;9.900;2023-08-06T14:33:05;1.73;;;0.73;;
39324;SDS011;25037;49.488;9.900;2023-08-06T14:35:50;1.85;;;0.52;;
39324;SDS011;25037;49.488;9.900;2023-08-06T14:38:17;2.30;;;0.60;;
39324;SDS011;25037;49.488;9.900;2023-08-06T14:40:44;2.65;;;0.85;;
39324;SDS011;25037;49.488;9.900;2023-08-06T14:43:11;2.08;;;0.85;;
39324;SDS011;25037;49.488;9.900;2023-08-06T14:45:40;1.98;;;0.85;;
39324;SDS011;25037;49.488;9.900;2023-08-06T14:48:08;2.03;;;1.38;;
39324;SDS011;25037;49.488;9.900;2023-08-06T14:50:37;2.33;;;0.80;;
39324;SDS011;25037;49.488;9.900;2023-08-06T14:53:06;1.73;;;0.82;;
39324;SDS011;25037;49.488;9.900;2023-08-06T14:55:34;1.42;;;0.57;;
39324;SDS011;25037;49.488;9.900;2023-08-06T14:58:04;2.58;;;0.75;;
39324;SDS011;25037;49.488;9.900;2023-08-06T15:00:32;2.15;;;0.55;;
39324;SDS011;25037;49.488;9.900;2023-08-06T15:03:07;1.63;;;0.60;;
39324;SDS011;25037;49.488;9.900;2023-08-06T15:05:33;1.63;;;0.50;;
39324;SDS011;25037;49.488;9.900;2023-08-06T15:08:03;1.60;;;0.60;;
39324;SDS011;25037;49.488;9.900;2023-08-06T15:10:30;1.65;;;0.80;;
39324;SDS011;25037;49.488;9.900;2023-08-06T15:12:59;1.13;;;0.60;;
39324;SDS011;25037;49.488;9.900;2023-08-06T15:15:27;1.90;;;0.63;;
39324;SDS011;25037;49.488;9.900;2023-08-06T15:17:54;1.95;;;0.40;;
39324;SDS011;25037;49.488;9.900;2023-08-06T15:20:22;1.77;;;0.30;;
39324;SDS011;25037;49.488;9.900;2023-08-06T15:22:49;1.10;;;0.50;;
39324;SDS011;25037;49.488;9.900;2023-08-06T15:25:19;1.00;;;0.40;;
39324;SDS011;25037;49.488;9.900;2023-08-06T15:27:46;1.60;;;0.40;;
39324;SDS011;25037;49.488;9.900;2023-08-06T15:30:13;0.93;;;0.45;;
39324;SDS011;25037;49.488;9.900;2023-08-06T15:32:39;0.70;;;0.28;;
39324;SDS011;25037;49.488;9.900;2023-08-06T15:35:11;1.58;;;0.60;;
39324;SDS011;25037;49.488;9.900;2023-08-06T15:37:38;1.38;;;0.50;;
39324;SDS011;25037;49.488;9.900;2023-08-06T15:40:08;1.65;;;0.60;;
39324;SDS011;25037;49.488;9.900;2023-08-06T15:42:35;1.33;;;0.52;;
39324;SDS011;25037;49.488;9.900;2023-08-06T15:45:02;2.78;;;0.50;;
39324;SDS011;25037;49.488;9.900;2023-08-06T15:47:32;1.20;;;0.50;;
39324;SDS011;25037;49.488;9.900;2023-08-06T15:50:08;1.58;;;0.52;;
39324;SDS011;25037;49.488;9.900;2023-08-06T15:52:35;1.92;;;0.52;;
39324;SDS011;25037;49.488;9.900;2023-08-06T15:55:02;2.35;;;0.60;;
39324;SDS011;25037;49.488;9.900;2023-08-06T15:57:33;1.83;;;0.55;;
39324;SDS011;25037;49.488;9.900;2023-08-06T16:00:03;2.35;;;0.60;;
39324;SDS011;25037;49.488;9.900;2023-08-06T16:02:31;1.17;;;0.50;;
39324;SDS011;25037;49.488;9.900;2023-08-06T16:05:00;1.25;;;0.52;;